sensor_id;sensor_type;location;lat;lon;timestamp;P1;durP1;ratioP1;P2;durP2;ratioP2
13349;SDS011;6744;53.190;6.576;2023-08-12T00:01:04;4.90;;;2.90;;
13349;SDS011;6744;53.190;6.576;2023-08-12T00:03:30;2.97;;;2.50;;
13349;SDS011;6744;53.190;6.576;2023-08-12T00:05:56;3.27;;;2.70;;
13349;SDS011;6744;53.190;6.576;2023-08-12T00:08:21;4.00;;;2.70;;
13349;SDS011;6744;53.190;6.576;2023-08-12T00:10:47;2.90;;;2.10;;
13349;SDS011;6744;53.190;6.576;2023-08-12T00:13:12;3.83;;;2.60;;
13349;SDS011;6744;53.190;6.576;2023-08-12T00:15:40;2.73;;;2.47;;
13349;SDS011;6744;53.190;6.576;2023-08-12T00:18:06;2.50;;;2.30;;
13349;SDS011;6744;53.190;6.576;2023-08-12T00:20:32;3.70;;;2.80;;
13349;SDS011;6744;53.190;6.576;2023-08-12T00:22:57;3.13;;;2.27;;
13349;SDS011;6744;53.190;6.576;2023-08-12T00:25:22;3.23;;;2.30;;
13349;SDS011;6744;53.190;6.576;2023-08-12T00:27:48;4.27;;;2.53;;
13349;SDS011;6744;53.190;6.576;2023-08-12T00:30:13;3.13;;;2.47;;
13349;SDS011;6744;53.190;6.576;2023-08-12T00:32:39;2.67;;;2.17;;
13349;SDS011;6744;53.190;6.576;2023-08-12T00:35:05;2.70;;;2.23;;
13349;SDS011;6744;53.190;6.576;2023-08-12T00:37:31;3.17;;;2.03;;
13349;SDS011;6744;53.190;6.576;2023-08-12T00:39:56;3.40;;;2.30;;
13349;SDS011;6744;53.190;6.576;2023-08-12T00:42:22;4.00;;;2.30;;
13349;SDS011;6744;53.190;6.576;2023-08-12T00:44:47;4.80;;;2.20;;
13349;SDS011;6744;53.190;6.576;2023-08-12T00:47:12;3.10;;;2.20;;
13349;SDS011;6744;53.190;6.576;2023-08-12T00:49:38;2.27;;;2.03;;
13349;SDS011;6744;53.190;6.576;2023-08-12T00:52:05;3.27;;;2.40;;
13349;SDS011;6744;53.190;6.576;2023-08-12T00:54:30;3.40;;;2.13;;
13349;SDS011;6744;53.190;6.576;2023-08-12T00:56:56;2.80;;;2.23;;
13349;SDS011;6744;53.190;6.576;2023-08-12T00:59:21;4.23;;;2.20;;
13349;SDS011;6744;53.190;6.576;2023-08-12T01:01:47;3.60;;;2.43;;
13349;SDS011;6744;53.190;6.576;2023-08-12T01:04:12;3.50;;;2.33;;
13349;SDS011;6744;53.190;6.576;2023-08-12T01:06:38;2.73;;;2.33;;
13349;SDS011;6744;53.190;6.576;2023-08-12T01:09:04;2.83;;;2.50;;
13349;SDS011;6744;53.190;6.576;2023-08-12T01:11:39;3.90;;;2.30;;
13349;SDS011;6744;53.190;6.576;2023-08-12T01:14:10;2.10;;;1.97;;
13349;SDS011;6744;53.190;6.576;2023-08-12T01:16:39;2.77;;;2.40;;
13349;SDS011;6744;53.190;6.576;2023-08-12T01:19:10;3.27;;;2.43;;
13349;SDS011;6744;53.190;6.576;2023-08-12T01:21:36;3.33;;;2.50;;
13349;SDS011;6744;53.190;6.576;2023-08-12T01:24:07;3.73;;;2.47;;
13349;SDS011;6744;53.190;6.576;2023-08-12T01:26:32;5.23;;;2.77;;
13349;SDS011;6744;53.190;6.576;2023-08-12T01:28:57;3.77;;;2.50;;
13349;SDS011;6744;53.190;6.576;2023-08-12T01:33:51;4.53;;;3.20;;
13349;SDS011;6744;53.190;6.576;2023-08-12T01:36:21;3.27;;;2.73;;
13349;SDS011;6744;53.190;6.576;2023-08-12T01:38:49;3.03;;;2.60;;
13349;SDS011;6744;53.190;6.576;2023-08-12T01:41:16;3.90;;;2.87;;
13349;SDS011;6744;53.190;6.576;2023-08-12T01:43:42;3.80;;;3.00;;
13349;SDS011;6744;53.190;6.576;2023-08-12T01:46:07;3.47;;;2.73;;
13349;SDS011;6744;53.190;6.576;2023-08-12T01:48:33;3.87;;;3.13;;
13349;SDS011;6744;53.190;6.576;2023-08-12T01:50:59;4.90;;;3.10;;
13349;SDS011;6744;53.190;6.576;2023-08-12T01:53:24;3.83;;;3.23;;
13349;SDS011;6744;53.190;6.576;2023-08-12T01:55:50;4.07;;;3.10;;
13349;SDS011;6744;53.190;6.576;2023-08-12T01:58:16;3.67;;;3.30;;
13349;SDS011;6744;53.190;6.576;2023-08-12T02:00:42;4.50;;;3.43;;
13349;SDS011;6744;53.190;6.576;2023-08-12T02:03:07;4.23;;;3.03;;
13349;SDS011;6744;53.190;6.576;2023-08-12T02:05:33;4.30;;;3.17;;
13349;SDS011;6744;53.190;6.576;2023-08-12T02:07:58;4.20;;;3.13;;
13349;SDS011;6744;53.190;6.576;2023-08-12T02:10:24;3.73;;;3.20;;
13349;SDS011;6744;53.190;6.576;2023-08-12T02:12:49;3.60;;;3.30;;
13349;SDS011;6744;53.190;6.576;2023-08-12T02:15:14;4.53;;;3.23;;
13349;SDS011;6744;53.190;6.576;2023-08-12T02:17:40;4.80;;;4.30;;
13349;SDS011;6744;53.190;6.576;2023-08-12T02:20:05;4.40;;;3.80;;
13349;SDS011;6744;53.190;6.576;2023-08-12T02:22:31;4.87;;;3.70;;
13349;SDS011;6744;53.190;6.576;2023-08-12T02:24:56;4.10;;;3.50;;
13349;SDS011;6744;53.190;6.576;2023-08-12T02:27:22;3.80;;;3.50;;
13349;SDS011;6744;53.190;6.576;2023-08-12T02:29:47;4.37;;;3.80;;
13349;SDS011;6744;53.190;6.576;2023-08-12T02:32:13;5.37;;;4.10;;
13349;SDS011;6744;53.190;6.576;2023-08-12T02:34:38;4.03;;;3.40;;
13349;SDS011;6744;53.190;6.576;2023-08-12T02:37:03;4.80;;;3.20;;
13349;SDS011;6744;53.190;6.576;2023-08-12T02:39:29;3.73;;;3.43;;
13349;SDS011;6744;53.190;6.576;2023-08-12T02:41:54;4.30;;;3.27;;
13349;SDS011;6744;53.190;6.576;2023-08-12T02:44:19;3.57;;;3.20;;
13349;SDS011;6744;53.190;6.576;2023-08-12T02:46:45;3.60;;;3.30;;
13349;SDS011;6744;53.190;6.576;2023-08-12T02:49:10;4.60;;;3.63;;
13349;SDS011;6744;53.190;6.576;2023-08-12T02:51:36;4.20;;;3.80;;
13349;SDS011;6744;53.190;6.576;2023-08-12T02:54:01;3.50;;;3.20;;
13349;SDS011;6744;53.190;6.576;2023-08-12T02:56:26;3.87;;;3.47;;
13349;SDS011;6744;53.190;6.576;2023-08-12T02:58:52;3.80;;;3.40;;
13349;SDS011;6744;53.190;6.576;2023-08-12T03:01:17;3.87;;;3.57;;
13349;SDS011;6744;53.190;6.576;2023-08-12T03:03:43;5.33;;;4.33;;
13349;SDS011;6744;53.190;6.576;2023-08-12T03:06:09;3.77;;;3.47;;
13349;SDS011;6744;53.190;6.576;2023-08-12T03:08:34;4.53;;;4.13;;
13349;SDS011;6744;53.190;6.576;2023-08-12T03:11:00;5.00;;;4.30;;
13349;SDS011;6744;53.190;6.576;2023-08-12T03:13:27;4.23;;;3.80;;
13349;SDS011;6744;53.190;6.576;2023-08-12T03:15:52;6.17;;;4.70;;
13349;SDS011;6744;53.190;6.576;2023-08-12T03:18:18;5.17;;;4.43;;
13349;SDS011;6744;53.190;6.576;2023-08-12T03:20:43;5.00;;;4.37;;
13349;SDS011;6744;53.190;6.576;2023-08-12T03:23:09;4.60;;;4.10;;
13349;SDS011;6744;53.190;6.576;2023-08-12T03:25:34;4.47;;;4.07;;
13349;SDS011;6744;53.190;6.576;2023-08-12T03:27:59;5.00;;;4.50;;
13349;SDS011;6744;53.190;6.576;2023-08-12T03:30:25;6.80;;;5.30;;
13349;SDS011;6744;53.190;6.576;2023-08-12T03:32:51;6.13;;;5.50;;
13349;SDS011;6744;53.190;6.576;2023-08-12T03:35:17;5.27;;;4.77;;
13349;SDS011;6744;53.190;6.576;2023-08-12T03:37:43;6.03;;;4.97;;
13349;SDS011;6744;53.190;6.576;2023-08-12T03:40:08;5.57;;;5.07;;
13349;SDS011;6744;53.190;6.576;2023-08-12T03:42:34;5.73;;;5.20;;
13349;SDS011;6744;53.190;6.576;2023-08-12T03:44:59;4.83;;;4.40;;
13349;SDS011;6744;53.190;6.576;2023-08-12T03:47:24;5.50;;;5.00;;
13349;SDS011;6744;53.190;6.576;2023-08-12T03:49:50;7.37;;;6.27;;
13349;SDS011;6744;53.190;6.576;2023-08-12T03:52:15;6.27;;;5.67;;
13349;SDS011;6744;53.190;6.576;2023-08-12T03:54:41;5.80;;;5.20;;
13349;SDS011;6744;53.190;6.576;2023-08-12T03:57:06;8.93;;;7.03;;
13349;SDS011;6744;53.190;6.576;2023-08-12T03:59:32;6.00;;;5.50;;
13349;SDS011;6744;53.190;6.576;2023-08-12T04:01:57;6.73;;;5.80;;
13349;SDS011;6744;53.190;6.576;2023-08-12T04:04:23;8.27;;;6.40;;
13349;SDS011;6744;53.190;6.576;2023-08-12T04:06:48;7.40;;;6.33;;
13349;SDS011;6744;53.190;6.576;2023-08-12T04:09:16;6.93;;;6.33;;
13349;SDS011;6744;53.190;6.576;2023-08-12T04:11:42;6.73;;;5.93;;
13349;SDS011;6744;53.190;6.576;2023-08-12T04:14:08;6.73;;;6.10;;
13349;SDS011;6744;53.190;6.576;2023-08-12T04:16:33;6.03;;;5.00;;
13349;SDS011;6744;53.190;6.576;2023-08-12T04:18:58;7.20;;;6.50;;
13349;SDS011;6744;53.190;6.576;2023-08-12T04:21:24;7.27;;;5.93;;
13349;SDS011;6744;53.190;6.576;2023-08-12T04:23:49;8.00;;;6.83;;
13349;SDS011;6744;53.190;6.576;2023-08-12T04:26:14;6.67;;;6.00;;
13349;SDS011;6744;53.190;6.576;2023-08-12T04:28:40;8.20;;;6.70;;
13349;SDS011;6744;53.190;6.576;2023-08-12T04:31:06;8.63;;;7.83;;
13349;SDS011;6744;53.190;6.576;2023-08-12T04:33:32;8.23;;;7.43;;
13349;SDS011;6744;53.190;6.576;2023-08-12T04:35:57;9.77;;;8.07;;
13349;SDS011;6744;53.190;6.576;2023-08-12T04:38:23;8.03;;;6.90;;
13349;SDS011;6744;53.190;6.576;2023-08-12T04:40:48;9.83;;;8.07;;
13349;SDS011;6744;53.190;6.576;2023-08-12T04:43:14;8.43;;;7.30;;
13349;SDS011;6744;53.190;6.576;2023-08-12T04:45:39;7.13;;;6.43;;
13349;SDS011;6744;53.190;6.576;2023-08-12T04:48:05;7.13;;;6.43;;
13349;SDS011;6744;53.190;6.576;2023-08-12T04:50:31;7.07;;;6.40;;
13349;SDS011;6744;53.190;6.576;2023-08-12T04:52:59;7.53;;;6.73;;
13349;SDS011;6744;53.190;6.576;2023-08-12T04:55:24;7.53;;;6.83;;
13349;SDS011;6744;53.190;6.576;2023-08-12T04:57:50;9.20;;;7.23;;
13349;SDS011;6744;53.190;6.576;2023-08-12T05:00:16;9.07;;;7.07;;
13349;SDS011;6744;53.190;6.576;2023-08-12T05:02:42;7.00;;;6.30;;
13349;SDS011;6744;53.190;6.576;2023-08-12T05:05:08;8.30;;;7.37;;
13349;SDS011;6744;53.190;6.576;2023-08-12T05:07:33;7.67;;;6.33;;
13349;SDS011;6744;53.190;6.576;2023-08-12T05:09:59;8.00;;;7.20;;
13349;SDS011;6744;53.190;6.576;2023-08-12T05:12:24;6.77;;;6.00;;
13349;SDS011;6744;53.190;6.576;2023-08-12T05:14:49;7.90;;;6.87;;
13349;SDS011;6744;53.190;6.576;2023-08-12T05:17:15;6.80;;;6.13;;
13349;SDS011;6744;53.190;6.576;2023-08-12T05:19:40;6.90;;;6.20;;
13349;SDS011;6744;53.190;6.576;2023-08-12T05:22:05;7.27;;;6.57;;
13349;SDS011;6744;53.190;6.576;2023-08-12T05:24:31;6.60;;;6.00;;
13349;SDS011;6744;53.190;6.576;2023-08-12T05:26:56;7.43;;;6.53;;
13349;SDS011;6744;53.190;6.576;2023-08-12T05:29:22;7.63;;;6.87;;
13349;SDS011;6744;53.190;6.576;2023-08-12T05:31:47;7.57;;;6.87;;
13349;SDS011;6744;53.190;6.576;2023-08-12T05:34:12;8.50;;;7.60;;
13349;SDS011;6744;53.190;6.576;2023-08-12T05:36:38;8.97;;;8.07;;
13349;SDS011;6744;53.190;6.576;2023-08-12T05:39:03;8.60;;;7.60;;
13349;SDS011;6744;53.190;6.576;2023-08-12T05:41:29;8.50;;;7.73;;
13349;SDS011;6744;53.190;6.576;2023-08-12T05:43:54;8.60;;;7.77;;
13349;SDS011;6744;53.190;6.576;2023-08-12T05:46:20;9.30;;;8.17;;
13349;SDS011;6744;53.190;6.576;2023-08-12T05:48:45;8.50;;;7.53;;
13349;SDS011;6744;53.190;6.576;2023-08-12T05:51:11;8.00;;;7.20;;
13349;SDS011;6744;53.190;6.576;2023-08-12T05:53:37;8.17;;;7.37;;
13349;SDS011;6744;53.190;6.576;2023-08-12T05:56:02;7.70;;;6.90;;
13349;SDS011;6744;53.190;6.576;2023-08-12T05:58:28;8.03;;;7.23;;
13349;SDS011;6744;53.190;6.576;2023-08-12T06:00:53;7.60;;;6.70;;
13349;SDS011;6744;53.190;6.576;2023-08-12T06:03:19;8.33;;;7.53;;
13349;SDS011;6744;53.190;6.576;2023-08-12T06:05:45;7.20;;;6.50;;
13349;SDS011;6744;53.190;6.576;2023-08-12T06:08:11;9.30;;;7.67;;
13349;SDS011;6744;53.190;6.576;2023-08-12T06:10:36;8.37;;;7.13;;
13349;SDS011;6744;53.190;6.576;2023-08-12T06:13:02;8.50;;;7.60;;
13349;SDS011;6744;53.190;6.576;2023-08-12T06:15:27;10.03;;;8.20;;
13349;SDS011;6744;53.190;6.576;2023-08-12T06:17:53;10.77;;;8.03;;
13349;SDS011;6744;53.190;6.576;2023-08-12T06:20:18;8.07;;;7.27;;
13349;SDS011;6744;53.190;6.576;2023-08-12T06:22:44;7.97;;;6.83;;
13349;SDS011;6744;53.190;6.576;2023-08-12T06:25:09;6.80;;;6.20;;
13349;SDS011;6744;53.190;6.576;2023-08-12T06:27:34;7.73;;;7.03;;
13349;SDS011;6744;53.190;6.576;2023-08-12T06:30:00;7.77;;;6.97;;
13349;SDS011;6744;53.190;6.576;2023-08-12T06:32:25;9.63;;;7.87;;
13349;SDS011;6744;53.190;6.576;2023-08-12T06:34:50;9.87;;;8.87;;
13349;SDS011;6744;53.190;6.576;2023-08-12T06:37:16;8.73;;;7.87;;
13349;SDS011;6744;53.190;6.576;2023-08-12T06:39:41;8.73;;;7.70;;
13349;SDS011;6744;53.190;6.576;2023-08-12T06:42:06;9.73;;;7.97;;
13349;SDS011;6744;53.190;6.576;2023-08-12T06:44:32;8.13;;;7.20;;
13349;SDS011;6744;53.190;6.576;2023-08-12T06:46:57;6.70;;;6.10;;
13349;SDS011;6744;53.190;6.576;2023-08-12T06:49:22;8.33;;;7.13;;
13349;SDS011;6744;53.190;6.576;2023-08-12T06:51:48;9.13;;;8.23;;
13349;SDS011;6744;53.190;6.576;2023-08-12T06:54:13;10.80;;;8.00;;
13349;SDS011;6744;53.190;6.576;2023-08-12T06:56:38;9.43;;;6.87;;
13349;SDS011;6744;53.190;6.576;2023-08-12T06:59:04;8.37;;;6.83;;
13349;SDS011;6744;53.190;6.576;2023-08-12T07:01:29;8.00;;;7.30;;
13349;SDS011;6744;53.190;6.576;2023-08-12T07:03:55;7.60;;;6.80;;
13349;SDS011;6744;53.190;6.576;2023-08-12T07:06:20;10.03;;;7.77;;
13349;SDS011;6744;53.190;6.576;2023-08-12T07:08:47;7.10;;;6.40;;
13349;SDS011;6744;53.190;6.576;2023-08-12T07:11:12;9.37;;;8.37;;
13349;SDS011;6744;53.190;6.576;2023-08-12T07:13:38;7.95;;;7.22;;
13349;SDS011;6744;53.190;6.576;2023-08-12T07:16:04;8.37;;;7.43;;
13349;SDS011;6744;53.190;6.576;2023-08-12T07:18:29;12.17;;;10.00;;
13349;SDS011;6744;53.190;6.576;2023-08-12T07:20:55;12.20;;;10.50;;
13349;SDS011;6744;53.190;6.576;2023-08-12T07:23:23;10.50;;;9.47;;
13349;SDS011;6744;53.190;6.576;2023-08-12T07:25:48;10.23;;;8.80;;
13349;SDS011;6744;53.190;6.576;2023-08-12T07:28:14;9.83;;;8.83;;
13349;SDS011;6744;53.190;6.576;2023-08-12T07:30:39;12.67;;;11.17;;
13349;SDS011;6744;53.190;6.576;2023-08-12T07:33:04;11.97;;;9.77;;
13349;SDS011;6744;53.190;6.576;2023-08-12T07:35:30;10.33;;;9.33;;
13349;SDS011;6744;53.190;6.576;2023-08-12T07:37:55;11.47;;;9.17;;
13349;SDS011;6744;53.190;6.576;2023-08-12T07:40:21;9.23;;;8.03;;
13349;SDS011;6744;53.190;6.576;2023-08-12T07:42:46;11.33;;;9.00;;
13349;SDS011;6744;53.190;6.576;2023-08-12T07:45:12;13.53;;;10.73;;
13349;SDS011;6744;53.190;6.576;2023-08-12T07:47:38;11.47;;;10.27;;
13349;SDS011;6744;53.190;6.576;2023-08-12T07:50:03;11.73;;;9.50;;
13349;SDS011;6744;53.190;6.576;2023-08-12T07:52:29;10.17;;;9.17;;
13349;SDS011;6744;53.190;6.576;2023-08-12T07:54:54;10.57;;;9.13;;
13349;SDS011;6744;53.190;6.576;2023-08-12T07:57:20;10.63;;;8.93;;
13349;SDS011;6744;53.190;6.576;2023-08-12T07:59:49;11.33;;;10.10;;
13349;SDS011;6744;53.190;6.576;2023-08-12T08:02:17;10.97;;;9.70;;
13349;SDS011;6744;53.190;6.576;2023-08-12T08:04:42;11.53;;;10.37;;
13349;SDS011;6744;53.190;6.576;2023-08-12T08:07:08;14.37;;;10.47;;
13349;SDS011;6744;53.190;6.576;2023-08-12T08:09:33;12.27;;;10.50;;
13349;SDS011;6744;53.190;6.576;2023-08-12T08:11:59;10.33;;;9.33;;
13349;SDS011;6744;53.190;6.576;2023-08-12T08:14:25;10.47;;;8.40;;
13349;SDS011;6744;53.190;6.576;2023-08-12T08:16:51;11.97;;;10.30;;
13349;SDS011;6744;53.190;6.576;2023-08-12T08:19:17;14.63;;;11.17;;
13349;SDS011;6744;53.190;6.576;2023-08-12T08:21:42;11.50;;;10.00;;
13349;SDS011;6744;53.190;6.576;2023-08-12T08:24:07;13.47;;;11.87;;
13349;SDS011;6744;53.190;6.576;2023-08-12T08:26:36;13.63;;;10.73;;
13349;SDS011;6744;53.190;6.576;2023-08-12T08:29:01;15.00;;;12.57;;
13349;SDS011;6744;53.190;6.576;2023-08-12T08:31:26;12.50;;;10.47;;
13349;SDS011;6744;53.190;6.576;2023-08-12T08:33:52;14.03;;;12.53;;
13349;SDS011;6744;53.190;6.576;2023-08-12T08:36:17;14.60;;;12.50;;
13349;SDS011;6744;53.190;6.576;2023-08-12T08:38:43;18.90;;;15.23;;
13349;SDS011;6744;53.190;6.576;2023-08-12T08:41:08;11.70;;;10.30;;
13349;SDS011;6744;53.190;6.576;2023-08-12T08:43:35;11.50;;;9.40;;
13349;SDS011;6744;53.190;6.576;2023-08-12T08:46:01;13.13;;;11.83;;
13349;SDS011;6744;53.190;6.576;2023-08-12T08:48:27;11.77;;;10.47;;
13349;SDS011;6744;53.190;6.576;2023-08-12T08:50:53;12.97;;;11.67;;
13349;SDS011;6744;53.190;6.576;2023-08-12T08:53:19;11.50;;;9.50;;
13349;SDS011;6744;53.190;6.576;2023-08-12T08:55:45;13.37;;;11.30;;
13349;SDS011;6744;53.190;6.576;2023-08-12T08:58:10;13.90;;;12.40;;
13349;SDS011;6744;53.190;6.576;2023-08-12T09:00:36;12.40;;;11.10;;
13349;SDS011;6744;53.190;6.576;2023-08-12T09:03:02;11.53;;;10.37;;
13349;SDS011;6744;53.190;6.576;2023-08-12T09:05:28;11.73;;;10.53;;
13349;SDS011;6744;53.190;6.576;2023-08-12T09:07:53;12.27;;;9.53;;
13349;SDS011;6744;53.190;6.576;2023-08-12T09:10:20;9.03;;;8.13;;
13349;SDS011;6744;53.190;6.576;2023-08-12T09:12:46;8.80;;;8.00;;
13349;SDS011;6744;53.190;6.576;2023-08-12T09:15:11;9.83;;;8.83;;
13349;SDS011;6744;53.190;6.576;2023-08-12T09:17:37;9.37;;;8.30;;
13349;SDS011;6744;53.190;6.576;2023-08-12T09:20:03;9.27;;;8.37;;
13349;SDS011;6744;53.190;6.576;2023-08-12T09:22:33;10.07;;;9.07;;
13349;SDS011;6744;53.190;6.576;2023-08-12T09:24:59;9.60;;;8.60;;
13349;SDS011;6744;53.190;6.576;2023-08-12T09:27:24;16.80;;;13.27;;
13349;SDS011;6744;53.190;6.576;2023-08-12T09:29:50;13.87;;;12.47;;
13349;SDS011;6744;53.190;6.576;2023-08-12T09:32:21;15.13;;;13.57;;
13349;SDS011;6744;53.190;6.576;2023-08-12T09:37:13;11.00;;;9.90;;
13349;SDS011;6744;53.190;6.576;2023-08-12T09:39:39;10.60;;;9.50;;
13349;SDS011;6744;53.190;6.576;2023-08-12T09:42:05;12.73;;;11.53;;
13349;SDS011;6744;53.190;6.576;2023-08-12T09:44:34;12.70;;;11.37;;
13349;SDS011;6744;53.190;6.576;2023-08-12T09:47:00;14.63;;;13.07;;
13349;SDS011;6744;53.190;6.576;2023-08-12T09:49:25;13.67;;;12.40;;
13349;SDS011;6744;53.190;6.576;2023-08-12T09:51:51;12.70;;;11.50;;
13349;SDS011;6744;53.190;6.576;2023-08-12T09:54:17;12.03;;;10.93;;
13349;SDS011;6744;53.190;6.576;2023-08-12T09:56:42;11.53;;;10.47;;
13349;SDS011;6744;53.190;6.576;2023-08-12T09:59:12;12.33;;;11.13;;
13349;SDS011;6744;53.190;6.576;2023-08-12T10:01:38;12.17;;;10.97;;
13349;SDS011;6744;53.190;6.576;2023-08-12T10:04:03;13.10;;;11.67;;
13349;SDS011;6744;53.190;6.576;2023-08-12T10:06:31;10.73;;;9.73;;
13349;SDS011;6744;53.190;6.576;2023-08-12T10:08:56;11.93;;;10.90;;
13349;SDS011;6744;53.190;6.576;2023-08-12T10:11:21;13.57;;;12.27;;
13349;SDS011;6744;53.190;6.576;2023-08-12T10:13:47;13.87;;;12.57;;
13349;SDS011;6744;53.190;6.576;2023-08-12T10:16:13;12.30;;;11.20;;
13349;SDS011;6744;53.190;6.576;2023-08-12T10:18:39;10.70;;;9.67;;
13349;SDS011;6744;53.190;6.576;2023-08-12T10:21:05;10.10;;;9.20;;
13349;SDS011;6744;53.190;6.576;2023-08-12T10:23:34;11.17;;;10.17;;
13349;SDS011;6744;53.190;6.576;2023-08-12T10:25:59;10.33;;;9.43;;
13349;SDS011;6744;53.190;6.576;2023-08-12T10:28:25;9.70;;;8.70;;
13349;SDS011;6744;53.190;6.576;2023-08-12T10:30:51;11.60;;;10.50;;
13349;SDS011;6744;53.190;6.576;2023-08-12T10:33:16;11.10;;;10.00;;
13349;SDS011;6744;53.190;6.576;2023-08-12T10:35:44;10.63;;;9.63;;
13349;SDS011;6744;53.190;6.576;2023-08-12T10:38:11;8.87;;;8.07;;
13349;SDS011;6744;53.190;6.576;2023-08-12T10:40:38;8.17;;;7.47;;
13349;SDS011;6744;53.190;6.576;2023-08-12T10:43:04;8.83;;;8.10;;
13349;SDS011;6744;53.190;6.576;2023-08-12T10:45:48;9.80;;;8.93;;
13349;SDS011;6744;53.190;6.576;2023-08-12T10:48:25;9.63;;;8.30;;
13349;SDS011;6744;53.190;6.576;2023-08-12T10:50:53;6.57;;;5.97;;
13349;SDS011;6744;53.190;6.576;2023-08-12T10:53:29;4.37;;;3.97;;
13349;SDS011;6744;53.190;6.576;2023-08-12T10:55:59;4.00;;;3.60;;
13349;SDS011;6744;53.190;6.576;2023-08-12T10:58:40;3.53;;;2.97;;
13349;SDS011;6744;53.190;6.576;2023-08-12T11:01:18;3.50;;;3.03;;
13349;SDS011;6744;53.190;6.576;2023-08-12T11:03:44;4.47;;;2.90;;
13349;SDS011;6744;53.190;6.576;2023-08-12T11:06:11;3.40;;;3.10;;
13349;SDS011;6744;53.190;6.576;2023-08-12T11:08:36;3.47;;;3.17;;
13349;SDS011;6744;53.190;6.576;2023-08-12T11:11:02;3.90;;;3.50;;
13349;SDS011;6744;53.190;6.576;2023-08-12T11:13:28;4.30;;;3.30;;
13349;SDS011;6744;53.190;6.576;2023-08-12T11:16:05;4.00;;;3.10;;
13349;SDS011;6744;53.190;6.576;2023-08-12T11:18:34;4.10;;;3.33;;
13349;SDS011;6744;53.190;6.576;2023-08-12T11:20:59;3.50;;;3.20;;
13349;SDS011;6744;53.190;6.576;2023-08-12T11:23:25;4.27;;;3.60;;
13349;SDS011;6744;53.190;6.576;2023-08-12T11:25:50;4.13;;;3.63;;
13349;SDS011;6744;53.190;6.576;2023-08-12T11:28:17;4.03;;;3.53;;
13349;SDS011;6744;53.190;6.576;2023-08-12T11:30:43;4.00;;;3.60;;
13349;SDS011;6744;53.190;6.576;2023-08-12T11:33:10;5.00;;;4.50;;
13349;SDS011;6744;53.190;6.576;2023-08-12T11:35:35;3.43;;;3.13;;
13349;SDS011;6744;53.190;6.576;2023-08-12T11:38:02;4.87;;;3.83;;
13349;SDS011;6744;53.190;6.576;2023-08-12T11:40:27;3.97;;;3.57;;
13349;SDS011;6744;53.190;6.576;2023-08-12T11:42:54;3.17;;;2.87;;
13349;SDS011;6744;53.190;6.576;2023-08-12T11:45:20;3.00;;;2.57;;
13349;SDS011;6744;53.190;6.576;2023-08-12T11:47:50;2.40;;;2.20;;
13349;SDS011;6744;53.190;6.576;2023-08-12T11:50:25;1.77;;;1.67;;
13349;SDS011;6744;53.190;6.576;2023-08-12T11:52:52;1.40;;;1.30;;
13349;SDS011;6744;53.190;6.576;2023-08-12T11:55:18;1.30;;;1.20;;
13349;SDS011;6744;53.190;6.576;2023-08-12T11:57:43;1.50;;;1.40;;
13349;SDS011;6744;53.190;6.576;2023-08-12T12:00:10;2.27;;;1.20;;
13349;SDS011;6744;53.190;6.576;2023-08-12T12:02:40;1.47;;;0.97;;
13349;SDS011;6744;53.190;6.576;2023-08-12T12:05:10;2.20;;;1.70;;
13349;SDS011;6744;53.190;6.576;2023-08-12T12:07:36;3.93;;;2.67;;
13349;SDS011;6744;53.190;6.576;2023-08-12T12:10:01;3.03;;;2.40;;
13349;SDS011;6744;53.190;6.576;2023-08-12T12:12:27;3.50;;;2.27;;
13349;SDS011;6744;53.190;6.576;2023-08-12T12:14:52;4.93;;;2.40;;
13349;SDS011;6744;53.190;6.576;2023-08-12T12:17:20;5.07;;;2.53;;
13349;SDS011;6744;53.190;6.576;2023-08-12T12:19:46;4.27;;;2.20;;
13349;SDS011;6744;53.190;6.576;2023-08-12T12:22:11;5.13;;;2.33;;
13349;SDS011;6744;53.190;6.576;2023-08-12T12:24:44;4.63;;;2.30;;
13349;SDS011;6744;53.190;6.576;2023-08-12T12:27:11;3.70;;;2.33;;
13349;SDS011;6744;53.190;6.576;2023-08-12T12:29:36;3.23;;;2.23;;
13349;SDS011;6744;53.190;6.576;2023-08-12T12:32:02;4.47;;;2.30;;
13349;SDS011;6744;53.190;6.576;2023-08-12T12:34:27;3.97;;;2.30;;
13349;SDS011;6744;53.190;6.576;2023-08-12T12:36:53;3.97;;;2.10;;
13349;SDS011;6744;53.190;6.576;2023-08-12T12:39:18;4.70;;;2.20;;
13349;SDS011;6744;53.190;6.576;2023-08-12T12:41:43;5.07;;;2.07;;
13349;SDS011;6744;53.190;6.576;2023-08-12T12:44:09;3.03;;;2.00;;
13349;SDS011;6744;53.190;6.576;2023-08-12T12:46:34;3.47;;;2.57;;
13349;SDS011;6744;53.190;6.576;2023-08-12T12:49:00;3.37;;;1.90;;
13349;SDS011;6744;53.190;6.576;2023-08-12T12:51:25;4.13;;;2.10;;
13349;SDS011;6744;53.190;6.576;2023-08-12T12:53:50;3.57;;;2.00;;
13349;SDS011;6744;53.190;6.576;2023-08-12T12:56:16;4.50;;;2.13;;
13349;SDS011;6744;53.190;6.576;2023-08-12T12:58:41;3.03;;;2.03;;
13349;SDS011;6744;53.190;6.576;2023-08-12T13:01:07;5.40;;;2.47;;
13349;SDS011;6744;53.190;6.576;2023-08-12T13:03:32;3.67;;;2.20;;
13349;SDS011;6744;53.190;6.576;2023-08-12T13:05:58;4.43;;;2.20;;
13349;SDS011;6744;53.190;6.576;2023-08-12T13:08:23;3.50;;;2.03;;
13349;SDS011;6744;53.190;6.576;2023-08-12T13:10:49;3.53;;;2.07;;
13349;SDS011;6744;53.190;6.576;2023-08-12T13:13:15;3.67;;;2.27;;
13349;SDS011;6744;53.190;6.576;2023-08-12T13:15:41;4.73;;;2.37;;
13349;SDS011;6744;53.190;6.576;2023-08-12T13:18:07;4.43;;;2.03;;
13349;SDS011;6744;53.190;6.576;2023-08-12T13:20:33;4.80;;;2.10;;
13349;SDS011;6744;53.190;6.576;2023-08-12T13:22:58;4.00;;;2.13;;
13349;SDS011;6744;53.190;6.576;2023-08-12T13:25:24;6.60;;;1.97;;
13349;SDS011;6744;53.190;6.576;2023-08-12T13:27:49;6.17;;;2.33;;
13349;SDS011;6744;53.190;6.576;2023-08-12T13:30:14;5.47;;;2.50;;
13349;SDS011;6744;53.190;6.576;2023-08-12T13:32:40;5.50;;;2.60;;
13349;SDS011;6744;53.190;6.576;2023-08-12T13:35:05;3.30;;;2.00;;
13349;SDS011;6744;53.190;6.576;2023-08-12T13:37:32;4.30;;;2.37;;
13349;SDS011;6744;53.190;6.576;2023-08-12T13:39:57;5.53;;;2.60;;
13349;SDS011;6744;53.190;6.576;2023-08-12T13:42:23;6.63;;;3.10;;
13349;SDS011;6744;53.190;6.576;2023-08-12T13:44:48;4.47;;;2.57;;
13349;SDS011;6744;53.190;6.576;2023-08-12T13:47:13;6.57;;;2.77;;
13349;SDS011;6744;53.190;6.576;2023-08-12T13:49:39;7.83;;;2.97;;
13349;SDS011;6744;53.190;6.576;2023-08-12T13:52:04;7.10;;;2.67;;
13349;SDS011;6744;53.190;6.576;2023-08-12T13:54:30;6.27;;;2.80;;
13349;SDS011;6744;53.190;6.576;2023-08-12T13:56:55;4.77;;;2.70;;
13349;SDS011;6744;53.190;6.576;2023-08-12T13:59:20;8.60;;;3.27;;
13349;SDS011;6744;53.190;6.576;2023-08-12T14:01:46;6.40;;;2.57;;
13349;SDS011;6744;53.190;6.576;2023-08-12T14:04:11;5.13;;;2.40;;
13349;SDS011;6744;53.190;6.576;2023-08-12T14:06:36;8.73;;;2.90;;
13349;SDS011;6744;53.190;6.576;2023-08-12T14:09:02;6.07;;;2.40;;
13349;SDS011;6744;53.190;6.576;2023-08-12T14:11:27;5.00;;;2.30;;
13349;SDS011;6744;53.190;6.576;2023-08-12T14:13:52;6.17;;;2.23;;
13349;SDS011;6744;53.190;6.576;2023-08-12T14:16:18;5.43;;;2.20;;
13349;SDS011;6744;53.190;6.576;2023-08-12T14:18:44;6.50;;;2.23;;
13349;SDS011;6744;53.190;6.576;2023-08-12T14:21:10;6.77;;;2.20;;
13349;SDS011;6744;53.190;6.576;2023-08-12T14:23:35;3.97;;;1.83;;
13349;SDS011;6744;53.190;6.576;2023-08-12T14:26:00;4.50;;;2.07;;
13349;SDS011;6744;53.190;6.576;2023-08-12T14:28:26;5.30;;;2.27;;
13349;SDS011;6744;53.190;6.576;2023-08-12T14:30:51;3.83;;;1.47;;
13349;SDS011;6744;53.190;6.576;2023-08-12T14:33:18;2.70;;;1.40;;
13349;SDS011;6744;53.190;6.576;2023-08-12T14:35:44;4.03;;;1.80;;
13349;SDS011;6744;53.190;6.576;2023-08-12T14:38:09;5.17;;;1.53;;
13349;SDS011;6744;53.190;6.576;2023-08-12T14:40:35;5.07;;;1.80;;
13349;SDS011;6744;53.190;6.576;2023-08-12T14:43:00;5.13;;;2.10;;
13349;SDS011;6744;53.190;6.576;2023-08-12T14:45:25;5.53;;;2.13;;
13349;SDS011;6744;53.190;6.576;2023-08-12T14:47:51;5.80;;;2.00;;
13349;SDS011;6744;53.190;6.576;2023-08-12T14:50:16;5.07;;;1.83;;
13349;SDS011;6744;53.190;6.576;2023-08-12T14:52:41;4.10;;;1.83;;
13349;SDS011;6744;53.190;6.576;2023-08-12T14:55:07;3.83;;;1.67;;